首页
METAR-TAF:

METAR-TAF

机场 :

林丁平德林国际机场

拿骚, 巴哈马

纬度: 25-03N, 经度: 077-28W, 海拔: 3米

当前天气观测

该预报发布于17分钟前的18:00 UTC
风速15节,风向南转南东
温度 32°C
湿度 59%
气压 1020 hPa
能见度10公里或以上
少量云层高于1800英尺, 积雨云.
散云层高于2000英尺

METAR: MYNN 151800Z 15015KT 9999 FEW018CB SCT020 32/23 A3011 RMK CB/NW

时间: 14:17 (18:17 UTC)

预报

该预报发布于1小时和32分钟前的16:45 UTC
预报有效从15日的 18点(UTC)到 16日的 18点(UTC)
风速14节,风向东南
能见度10公里或以上
散云层高于2000英尺
散云层高于22000英尺
附近有阵雨
几率 30% :
短暂存在
从 16日的 09点(UTC)到 16日的 15点(UTC)
风速10节,风向东转东南
能见度10公里或以上
散云层高于1500英尺
附近有阵雨

TAF: MYNN 151645Z 1518/1618 13014KT 9999 VCSH SCT020 SCT220 PROB30 TEMPO 1609/1615 11010KT 9999 VCSH SCT015

超过4000个机场的气象观测和天气预报(METAR&TAF报告)。

可查询的气象台以黄色和红色小点在地图上表示。

将鼠标移到小点上方,可查看气象台名称。

然后点击查看天气观测和预报。

如需切换地图:点击带黑十字的绿色按钮放大地图;点击带横线的绿色按钮缩小地图;或者点击绿色箭头查看邻近地区的地图。


METAR-TAF: